Time;durP1;ratioP1;P1;durP2;ratioP2;P2;SDS_P1;SDS_P2;PMS_P1;PMS_P2;Temp;Humidity;BMP_temperature;BMP_pressure;BME280_temperature;BME280_humidity;BME280_pressure;Samples;Min_cycle;Max_cycle;Signal;HPM_P1;HPM_P2
2022/11/10 00:00:34;;;;;;;7.25;4.03;;;10.60;99.90;;;;;;5095448;28;20039;-77
2022/11/10 00:03:02;;;;;;;7.13;4.53;;;10.70;99.90;;;;;;5094875;28;20031;-77
2022/11/10 00:05:28;;;;;;;5.63;3.47;;;10.60;99.90;;;;;;5095328;28;20039;-77
2022/11/10 00:07:53;;;;;;;4.68;3.50;;;10.50;99.90;;;;;;5095143;28;20027;-77
2022/11/10 00:10:19;;;;;;;6.85;3.92;;;10.40;99.90;;;;;;5095221;28;20170;-78
2022/11/10 00:12:44;;;;;;;7.32;3.50;;;10.60;99.90;;;;;;5093034;28;20051;-77
2022/11/10 00:17:54;;;;;;;8.13;4.28;;;10.10;99.90;;;;;;5094807;28;20031;-77
2022/11/10 00:20:20;;;;;;;6.15;3.35;;;10.20;99.90;;;;;;5095102;28;20032;-77
2022/11/10 00:22:46;;;;;;;5.50;3.17;;;10.30;99.90;;;;;;5094865;28;20035;-77
2022/11/10 00:25:12;;;;;;;6.45;3.97;;;10.30;99.90;;;;;;5094772;28;20382;-77
2022/11/10 00:27:37;;;;;;;4.20;2.90;;;10.30;99.90;;;;;;5094664;28;20028;-77
2022/11/10 00:30:04;;;;;;;3.70;2.15;;;10.30;99.90;;;;;;5094545;28;20032;-77
2022/11/10 00:32:30;;;;;;;4.22;2.40;;;10.20;99.90;;;;;;5094556;28;20024;-77
2022/11/10 00:34:56;;;;;;;4.70;2.65;;;10.10;99.90;;;;;;5094885;28;20024;-77
2022/11/10 00:37:22;;;;;;;2.55;2.13;;;10.10;99.90;;;;;;5093428;28;20020;-77
2022/11/10 00:39:47;;;;;;;4.05;2.00;;;10.10;99.90;;;;;;5093190;28;20031;-77
2022/11/10 00:42:13;;;;;;;2.15;1.83;;;10.00;99.90;;;;;;5106030;28;20088;-77
2022/11/10 00:44:39;;;;;;;1.73;1.50;;;10.00;99.90;;;;;;5092345;28;20062;-77
2022/11/10 00:47:05;;;;;;;1.92;1.45;;;10.00;99.90;;;;;;5094548;28;20024;-77
2022/11/10 00:49:31;;;;;;;2.03;1.63;;;10.00;99.90;;;;;;5094509;28;20043;-77
2022/11/10 00:51:56;;;;;;;3.17;1.98;;;9.90;99.90;;;;;;5094538;28;20466;-77
2022/11/10 00:54:22;;;;;;;2.85;1.90;;;9.80;99.90;;;;;;5094474;28;20085;-78
2022/11/10 00:56:48;;;;;;;4.88;2.58;;;9.90;99.90;;;;;;5093831;28;20016;-77
2022/11/10 00:59:14;;;;;;;4.60;2.75;;;9.80;99.90;;;;;;5093824;28;20545;-77
2022/11/10 01:01:39;;;;;;;3.42;2.42;;;9.60;99.90;;;;;;5094056;28;20491;-77
2022/11/10 01:04:05;;;;;;;4.25;2.55;;;9.50;99.90;;;;;;5094185;28;20024;-77
2022/11/10 01:06:31;;;;;;;5.57;3.33;;;9.70;99.90;;;;;;5094375;28;20020;-77
2022/11/10 01:08:57;;;;;;;5.35;3.15;;;9.80;99.90;;;;;;5094143;28;20493;-77
2022/11/10 01:11:26;;;;;;;5.65;3.40;;;9.70;99.90;;;;;;5092048;28;20521;-77
2022/11/10 01:13:54;;;;;;;5.38;3.45;;;9.70;99.90;;;;;;5092020;28;20073;-77
2022/11/10 01:16:25;;;;;;;4.60;3.05;;;9.60;99.90;;;;;;5092238;28;20513;-77
2022/11/10 01:18:52;;;;;;;;;;;9.50;99.90;;;;;;5094303;28;20039;-77
2022/11/10 01:21:19;;;;;;;3.67;2.50;;;9.50;99.90;;;;;;5093817;28;19950;-77
2022/11/10 01:23:45;;;;;;;5.30;2.78;;;9.40;99.90;;;;;;5093451;28;20120;-77
2022/11/10 01:26:11;;;;;;;5.10;3.20;;;9.30;99.90;;;;;;5093646;28;20032;-77
2022/11/10 01:28:36;;;;;;;5.57;3.15;;;9.50;99.90;;;;;;5091869;28;20570;-77
2022/11/10 01:31:09;;;;;;;4.40;2.58;;;9.50;99.90;;;;;;5093609;28;20070;-77
2022/11/10 01:33:35;;;;;;;4.10;2.40;;;9.50;99.90;;;;;;5093222;28;20024;-77
2022/11/10 01:36:02;;;;;;;3.90;2.67;;;9.40;99.90;;;;;;5092187;28;20024;-77
2022/11/10 01:38:30;;;;;;;3.25;1.98;;;9.30;99.90;;;;;;5093474;28;20078;-77
2022/11/10 01:40:56;;;;;;;3.60;2.00;;;9.30;99.90;;;;;;5093146;28;20086;-77
2022/11/10 01:43:23;;;;;;;3.78;2.08;;;9.30;99.90;;;;;;5101618;28;20085;-77
2022/11/10 01:46:00;;;;;;;2.60;2.00;;;9.30;99.90;;;;;;5093406;28;20103;-77
2022/11/10 01:48:41;;;;;;;3.45;2.22;;;9.20;99.90;;;;;;5091636;28;20020;-77
2022/11/10 01:51:18;;;;;;;3.45;2.50;;;9.20;99.90;;;;;;5091664;28;20024;-77
2022/11/10 01:53:50;;;;;;;2.88;1.95;;;9.30;99.90;;;;;;5093283;28;20032;-77
2022/11/10 01:56:16;;;;;;;;;;;9.20;99.90;;;;;;5092016;28;20016;-77
2022/11/10 01:58:47;;;;;;;5.25;3.00;;;9.20;99.90;;;;;;5092543;28;19904;-77
2022/11/10 02:01:13;;;;;;;5.28;2.97;;;9.30;99.90;;;;;;5092143;28;20137;-77
2022/11/10 02:03:51;;;;;;;4.85;3.08;;;9.30;99.90;;;;;;5092982;28;20056;-77
2022/11/10 02:06:19;;;;;;;6.57;3.28;;;9.10;99.90;;;;;;5091660;28;20032;-77
2022/11/10 02:08:46;;;;;;;3.95;3.20;;;9.20;99.90;;;;;;5093067;28;20063;-77
2022/11/10 02:11:12;;;;;;;4.18;2.92;;;9.20;99.90;;;;;;5092796;28;20477;-77
2022/11/10 02:13:38;;;;;;;4.80;3.17;;;9.20;99.90;;;;;;5092109;28;20024;-78
2022/11/10 02:16:04;;;;;;;4.03;2.97;;;9.10;99.90;;;;;;5091476;28;20024;-77
2022/11/10 02:18:30;;;;;;;4.45;3.40;;;9.20;99.90;;;;;;5092792;28;20020;-77
2022/11/10 02:20:56;;;;;;;5.00;3.10;;;9.20;99.90;;;;;;5092749;28;20027;-77
2022/11/10 02:23:32;;;;;;;3.83;2.80;;;9.10;99.90;;;;;;5092238;28;20031;-77
2022/11/10 02:25:58;;;;;;;4.15;2.92;;;9.10;99.90;;;;;;5092414;28;20031;-77
2022/11/10 02:28:24;;;;;;;3.45;2.45;;;9.20;99.90;;;;;;5092478;28;20028;-77
2022/11/10 02:30:51;;;;;;;3.78;1.98;;;9.20;99.90;;;;;;5092556;28;20028;-77
2022/11/10 02:33:16;;;;;;;3.05;2.10;;;9.20;99.90;;;;;;5090847;28;20081;-77
2022/11/10 02:35:43;;;;;;;3.90;2.72;;;9.00;99.90;;;;;;5092580;28;20024;-77
2022/11/10 02:38:09;;;;;;;2.40;1.98;;;9.00;99.90;;;;;;5090900;28;20020;-77
2022/11/10 02:40:35;;;;;;;2.45;2.00;;;8.90;99.90;;;;;;5092541;28;20024;-77
2022/11/10 02:43:01;;;;;;;2.05;1.83;;;9.00;99.90;;;;;;5102130;28;20401;-77
2022/11/10 02:45:27;;;;;;;3.28;2.65;;;9.00;99.90;;;;;;5092550;28;20027;-77
2022/11/10 02:47:53;;;;;;;4.63;2.72;;;9.00;99.90;;;;;;5092447;28;20035;-77
2022/11/10 02:50:18;;;;;;;5.63;3.08;;;9.00;99.90;;;;;;5092008;28;20028;-77
2022/11/10 02:52:44;;;;;;;4.18;2.85;;;9.00;99.90;;;;;;5092254;28;20039;-77
2022/11/10 02:55:09;;;;;;;3.95;2.70;;;8.90;99.90;;;;;;5090825;28;20016;-77
2022/11/10 02:57:36;;;;;;;4.40;2.58;;;9.00;99.90;;;;;;5092181;28;20554;-77
2022/11/10 03:00:03;;;;;;;3.58;2.20;;;9.00;99.90;;;;;;5092819;28;20054;-77
2022/11/10 03:02:29;;;;;;;3.97;2.55;;;8.80;99.90;;;;;;5095034;28;20024;-77
2022/11/10 03:04:55;;;;;;;3.30;2.30;;;8.70;99.90;;;;;;5094981;28;20385;-77
2022/11/10 03:07:20;;;;;;;3.63;2.65;;;8.90;99.90;;;;;;5094965;28;20516;-77
2022/11/10 03:09:46;;;;;;;2.50;1.92;;;8.90;99.90;;;;;;5096090;28;20666;-77
2022/11/10 03:12:11;;;;;;;3.10;1.90;;;8.90;99.90;;;;;;5096309;28;20493;-77
2022/11/10 03:14:37;;;;;;;3.95;2.25;;;8.90;99.90;;;;;;5096024;28;20473;-77
2022/11/10 03:17:03;;;;;;;2.95;1.98;;;8.90;99.90;;;;;;5096113;28;20469;-77
2022/11/10 03:19:28;;;;;;;3.50;2.03;;;8.90;99.90;;;;;;5096077;28;20461;-77
2022/11/10 03:21:54;;;;;;;2.97;1.90;;;9.00;99.90;;;;;;5095915;28;20391;-77
2022/11/10 03:24:20;;;;;;;3.75;2.28;;;9.00;99.90;;;;;;5095657;28;20044;-77
2022/11/10 03:26:45;;;;;;;1.73;1.63;;;8.90;99.90;;;;;;5095919;28;20131;-77
2022/11/10 03:29:11;;;;;;;2.95;1.42;;;8.80;99.90;;;;;;5095731;28;20537;-77
2022/11/10 03:31:37;;;;;;;3.67;1.65;;;8.70;99.90;;;;;;5095644;28;20527;-77
2022/11/10 03:34:03;;;;;;;1.95;1.40;;;8.70;99.90;;;;;;5095797;28;20020;-77
2022/11/10 03:36:28;;;;;;;1.63;1.50;;;8.60;99.90;;;;;;5095861;28;20032;-77
2022/11/10 03:38:55;;;;;;;1.50;1.25;;;8.50;99.90;;;;;;5094033;28;20047;-77
2022/11/10 03:41:21;;;;;;;2.95;1.52;;;8.60;99.90;;;;;;5100073;28;20019;-77
2022/11/10 03:43:47;;;;;;;2.78;1.40;;;8.50;99.90;;;;;;5100669;28;20096;-77
2022/11/10 03:46:13;;;;;;;1.55;1.30;;;8.50;99.90;;;;;;5094574;28;20163;-77
2022/11/10 03:48:39;;;;;;;2.47;1.30;;;8.50;99.90;;;;;;5094275;28;20505;-77
2022/11/10 03:51:05;;;;;;;1.23;1.13;;;8.50;99.90;;;;;;5095003;28;20176;-77
2022/11/10 03:53:30;;;;;;;1.58;1.20;;;8.50;99.90;;;;;;5095224;28;20500;-77
2022/11/10 03:56:01;;;;;;;1.50;1.20;;;8.50;99.90;;;;;;5094290;28;20517;-77
2022/11/10 03:58:26;;;;;;;1.05;0.95;;;8.50;99.90;;;;;;5095419;28;20054;-77
2022/11/10 04:00:53;;;;;;;1.75;1.20;;;8.50;99.90;;;;;;5095541;28;20079;-77
2022/11/10 04:03:19;;;;;;;1.33;1.00;;;8.50;99.90;;;;;;5094986;28;20024;-77
2022/11/10 04:15:40;;;;;;;2.17;1.40;;;8.70;99.90;;;;;;5094512;28;20432;-77
2022/11/10 04:16:43;;;;;;;3.13;1.40;;;8.60;99.90;;;;;;5095233;28;20031;-77
2022/11/10 04:19:09;;;;;;;1.80;1.23;;;8.50;99.90;;;;;;5095180;28;20027;-77
2022/11/10 04:21:35;;;;;;;2.17;1.60;;;8.70;99.90;;;;;;5093590;28;20081;-77
2022/11/10 04:24:00;;;;;;;2.38;1.40;;;8.60;99.90;;;;;;5094202;28;20047;-76
2022/11/10 04:26:29;;;;;;;1.92;1.60;;;8.60;99.90;;;;;;5095051;28;20028;-77
2022/11/10 04:28:59;;;;;;;1.98;1.40;;;8.60;99.90;;;;;;5094393;28;20020;-77
2022/11/10 04:31:27;;;;;;;2.08;1.77;;;8.70;99.90;;;;;;5093571;28;20024;-77
2022/11/10 04:33:54;;;;;;;3.05;1.40;;;8.70;99.90;;;;;;5093272;28;20024;-77
2022/11/10 04:36:24;;;;;;;1.92;1.73;;;8.80;99.90;;;;;;5094772;28;20112;-77
2022/11/10 04:38:50;;;;;;;2.08;1.60;;;8.80;99.90;;;;;;5094101;28;20020;-77
2022/11/10 04:41:16;;;;;;;2.13;1.73;;;8.80;99.90;;;;;;5098307;28;20639;-77
2022/11/10 04:43:42;;;;;;;3.28;1.90;;;8.90;99.90;;;;;;5100215;28;20028;-77
2022/11/10 04:46:29;;;;;;;2.25;1.90;;;8.90;99.90;;;;;;5094542;28;20024;-77
2022/11/10 04:48:55;;;;;;;2.08;1.60;;;8.70;99.90;;;;;;5094402;28;20028;-77
2022/11/10 04:51:24;;;;;;;2.85;1.67;;;8.80;99.90;;;;;;5093853;28;20032;-77
2022/11/10 04:53:49;;;;;;;2.03;1.70;;;8.90;99.90;;;;;;5094513;28;20070;-77
2022/11/10 04:56:18;;;;;;;1.98;1.77;;;8.90;99.90;;;;;;5092985;28;20032;-77
2022/11/10 04:58:44;;;;;;;2.53;2.05;;;8.90;99.90;;;;;;5093973;28;20024;-77
2022/11/10 05:01:18;;;;;;;1.60;1.50;;;8.90;99.90;;;;;;5092999;28;20035;-77
2022/11/10 05:03:44;;;;;;;1.50;1.38;;;8.90;99.90;;;;;;5094176;28;20092;-77
2022/11/10 05:06:11;;;;;;;1.45;1.30;;;8.90;99.90;;;;;;5094133;28;20110;-77
2022/11/10 05:08:37;;;;;;;1.70;1.40;;;8.80;99.90;;;;;;5094245;28;20494;-77
2022/11/10 05:11:04;;;;;;;1.63;1.52;;;8.70;99.90;;;;;;5092329;28;20497;-77
2022/11/10 05:13:30;;;;;;;1.67;1.58;;;8.80;99.90;;;;;;5092252;28;20024;-77
2022/11/10 05:15:56;;;;;;;1.10;1.10;;;8.80;99.90;;;;;;5094142;28;20473;-77
2022/11/10 05:18:22;;;;;;;1.40;1.30;;;8.90;99.90;;;;;;5094045;28;20023;-77
2022/11/10 05:20:52;;;;;;;0.90;0.88;;;9.00;99.90;;;;;;5093660;28;20473;-77
2022/11/10 05:23:36;;;;;;;1.40;1.30;;;9.10;99.90;;;;;;5091531;28;20035;-77
2022/11/10 05:26:13;;;;;;;1.23;1.13;;;9.10;99.90;;;;;;5093737;28;20048;-77
2022/11/10 05:28:41;;;;;;;0.90;0.90;;;9.00;99.90;;;;;;5093362;28;20023;-77
2022/11/10 05:31:07;;;;;;;1.10;1.00;;;9.10;99.90;;;;;;5093716;28;20028;-77
2022/11/10 05:33:34;;;;;;;1.02;0.95;;;9.20;99.90;;;;;;5093463;28;20028;-77
2022/11/10 05:36:00;;;;;;;1.10;1.00;;;9.20;99.90;;;;;;5091863;28;20020;-77
2022/11/10 05:38:26;;;;;;;0.90;0.90;;;9.20;99.90;;;;;;5093625;28;20024;-77
2022/11/10 05:40:52;;;;;;;0.75;0.75;;;9.20;99.90;;;;;;5093847;28;20470;-77
2022/11/10 05:43:18;;;;;;;0.57;0.57;;;9.20;99.90;;;;;;5102810;28;20478;-77
2022/11/10 05:45:44;;;;;;;0.88;0.88;;;9.10;99.90;;;;;;5093286;28;20032;-77
2022/11/10 05:48:10;;;;;;;1.30;1.20;;;9.30;99.90;;;;;;5093606;28;20047;-77
2022/11/10 05:50:35;;;;;;;0.80;0.80;;;9.40;99.90;;;;;;5092915;28;20035;-77
2022/11/10 05:53:01;;;;;;;1.20;1.10;;;9.30;99.90;;;;;;5091642;28;20020;-77
2022/11/10 05:55:28;;;;;;;1.05;0.68;;;9.10;99.90;;;;;;5093154;28;20032;-77
2022/11/10 05:57:55;;;;;;;0.90;0.90;;;9.20;99.90;;;;;;5092990;28;20024;-77
2022/11/10 06:00:24;;;;;;;1.15;0.90;;;9.20;99.90;;;;;;5093071;28;20055;-77
2022/11/10 06:03:10;;;;;;;0.80;0.80;;;9.20;99.90;;;;;;5093068;28;20047;-77
2022/11/10 06:05:36;;;;;;;0.95;0.80;;;9.30;99.90;;;;;;5092834;28;20028;-77
2022/11/10 06:08:03;;;;;;;1.17;0.80;;;9.30;99.90;;;;;;5093050;28;20028;-77
2022/11/10 06:10:29;;;;;;;1.20;0.93;;;9.40;99.90;;;;;;5093040;28;20020;-77
2022/11/10 06:12:55;;;;;;;1.73;1.17;;;9.30;99.90;;;;;;5092600;28;20027;-77
2022/11/10 06:15:22;;;;;;;1.13;1.00;;;9.20;99.90;;;;;;5092493;28;20008;-77
2022/11/10 06:17:49;;;;;;;1.00;1.00;;;9.30;99.90;;;;;;5093028;28;20474;-77
2022/11/10 06:20:16;;;;;;;1.73;1.00;;;9.30;99.90;;;;;;5092566;28;20026;-77
2022/11/10 06:22:42;;;;;;;0.90;0.90;;;9.20;99.90;;;;;;5093001;28;20051;-77
2022/11/10 06:25:09;;;;;;;0.60;0.60;;;9.30;99.90;;;;;;5092077;28;20094;-77
2022/11/10 06:27:36;;;;;;;3.35;1.20;;;9.30;99.90;;;;;;5092439;28;20485;-77
2022/11/10 06:30:02;;;;;;;0.90;0.90;;;9.30;99.90;;;;;;5092509;28;20016;-77
2022/11/10 06:32:28;;;;;;;1.25;1.15;;;9.20;99.90;;;;;;5092519;28;20077;-77
2022/11/10 06:34:54;;;;;;;1.52;1.00;;;9.30;99.90;;;;;;5091836;28;20099;-77
2022/11/10 06:37:19;;;;;;;0.93;0.90;;;9.50;99.90;;;;;;5091246;28;20072;-77
2022/11/10 06:39:46;;;;;;;0.90;0.90;;;9.60;99.90;;;;;;5090931;28;20063;-77
2022/11/10 06:42:12;;;;;;;0.77;0.77;;;9.50;99.90;;;;;;5103900;28;20016;-77
2022/11/10 06:44:37;;;;;;;2.03;1.20;;;9.40;99.90;;;;;;5089145;28;20407;-77
2022/11/10 06:47:03;;;;;;;1.15;1.05;;;9.40;99.90;;;;;;5090941;28;20362;-77
2022/11/10 06:49:28;;;;;;;0.90;0.90;;;9.40;99.90;;;;;;5092136;28;20377;-77
2022/11/10 06:51:54;;;;;;;0.88;0.77;;;9.30;99.90;;;;;;5090907;28;20085;-77
2022/11/10 06:54:20;;;;;;;0.80;0.80;;;9.40;99.90;;;;;;5092236;28;20028;-77
2022/11/10 06:56:45;;;;;;;1.75;0.90;;;9.30;99.90;;;;;;5090974;28;20032;-77
2022/11/10 06:59:11;;;;;;;0.77;0.77;;;9.40;99.90;;;;;;5092171;28;20024;-77
2022/11/10 07:01:37;;;;;;;1.83;1.00;;;9.40;99.90;;;;;;5092092;28;20075;-77
2022/11/10 07:04:03;;;;;;;1.02;0.85;;;9.40;99.90;;;;;;5092276;28;20077;-77
2022/11/10 07:06:29;;;;;;;1.10;1.00;;;9.50;99.90;;;;;;5092308;28;20024;-77
2022/11/10 07:08:55;;;;;;;1.15;0.90;;;9.50;99.90;;;;;;5091006;28;20093;-77
2022/11/10 07:11:20;;;;;;;0.95;0.95;;;9.50;99.90;;;;;;5091780;28;20054;-77
2022/11/10 07:13:46;;;;;;;1.77;1.20;;;9.50;99.90;;;;;;5092023;28;20047;-77
2022/11/10 07:16:12;;;;;;;0.85;0.80;;;9.60;99.90;;;;;;5091875;28;20030;-77
2022/11/10 07:18:38;;;;;;;0.70;0.70;;;9.60;99.90;;;;;;5092332;28;20070;-77
2022/11/10 07:21:04;;;;;;;1.15;1.00;;;9.50;99.90;;;;;;5090274;28;20028;-77
2022/11/10 07:23:32;;;;;;;0.95;0.95;;;9.50;99.90;;;;;;5091874;28;20040;-77
2022/11/10 07:25:59;;;;;;;1.10;0.95;;;9.50;99.90;;;;;;5090401;28;20036;-77
2022/11/10 07:28:24;;;;;;;1.55;0.80;;;9.50;99.90;;;;;;5091942;28;20058;-77
2022/11/10 07:30:50;;;;;;;1.55;0.90;;;9.40;99.90;;;;;;5091267;28;20074;-77
2022/11/10 07:33:16;;;;;;;1.23;0.90;;;9.40;99.90;;;;;;5090597;28;20028;-77
2022/11/10 07:35:41;;;;;;;1.88;1.00;;;9.40;99.90;;;;;;5090596;28;20398;-77
2022/11/10 07:38:11;;;;;;;2.15;0.88;;;9.30;99.90;;;;;;5091865;28;20024;-77
2022/11/10 07:40:37;;;;;;;1.00;0.93;;;9.40;99.90;;;;;;5091672;28;20107;-77
2022/11/10 07:43:03;;;;;;;1.38;1.25;;;9.40;99.90;;;;;;5096911;28;20055;-77
2022/11/10 07:45:30;;;;;;;1.15;1.00;;;9.40;99.90;;;;;;5070097;28;20102;-77
2022/11/10 07:48:04;;;;;;;1.42;1.10;;;9.40;99.90;;;;;;5073712;28;20082;-77
2022/11/10 07:50:32;;;;;;;1.17;0.98;;;9.50;99.90;;;;;;5087306;28;20062;-77
2022/11/10 07:53:10;;;;;;;1.27;1.08;;;9.50;99.90;;;;;;5095511;28;20494;-77
2022/11/10 07:55:37;;;;;;;1.67;1.08;;;9.50;99.90;;;;;;5094018;28;20485;-77
2022/11/10 07:58:04;;;;;;;1.05;1.02;;;9.60;99.90;;;;;;5094018;28;20067;-77
2022/11/10 08:00:31;;;;;;;2.60;1.00;;;9.60;99.90;;;;;;5093764;28;20016;-77
2022/11/10 08:03:07;;;;;;;2.20;1.30;;;9.70;99.90;;;;;;5095404;28;20036;-77
2022/11/10 08:05:33;;;;;;;2.25;1.10;;;9.70;99.90;;;;;;5095332;28;20028;-77
2022/11/10 08:07:59;;;;;;;0.80;0.80;;;9.70;99.90;;;;;;5095464;28;20047;-77
2022/11/10 08:10:26;;;;;;;0.90;0.90;;;9.60;99.90;;;;;;5095284;28;20501;-77
2022/11/10 08:12:57;;;;;;;1.65;1.30;;;9.80;99.90;;;;;;5093428;28;20478;-77
2022/11/10 08:15:24;;;;;;;2.38;0.88;;;9.80;99.90;;;;;;5094664;28;20016;-77
2022/11/10 08:17:50;;;;;;;1.05;0.95;;;10.00;99.90;;;;;;5095058;28;20028;-77
2022/11/10 08:20:16;;;;;;;1.25;1.15;;;10.00;99.90;;;;;;5095182;28;20431;-77
2022/11/10 08:22:43;;;;;;;2.30;1.52;;;10.00;99.90;;;;;;5094835;28;20028;-77
2022/11/10 08:25:09;;;;;;;2.58;1.42;;;9.90;99.90;;;;;;5094830;28;20044;-77
2022/11/10 08:27:35;;;;;;;1.73;1.20;;;9.90;99.90;;;;;;5094812;28;20055;-77
2022/11/10 08:30:00;;;;;;;1.67;1.52;;;10.00;99.90;;;;;;5094464;28;20055;-77
2022/11/10 08:32:26;;;;;;;1.45;1.35;;;10.10;99.90;;;;;;5093624;28;20086;-77
2022/11/10 08:34:52;;;;;;;2.60;1.80;;;10.20;99.90;;;;;;5094900;28;20023;-77
2022/11/10 08:37:17;;;;;;;1.77;1.50;;;10.20;99.90;;;;;;5094574;28;20095;-77
2022/11/10 08:39:45;;;;;;;2.78;1.70;;;10.20;99.90;;;;;;5093152;28;20486;-77
2022/11/10 08:42:10;;;;;;;1.70;1.30;;;10.20;99.90;;;;;;5105765;28;20031;-77
2022/11/10 08:44:36;;;;;;;2.05;1.45;;;10.30;99.90;;;;;;5092663;28;20054;-77
2022/11/10 08:47:01;;;;;;;2.25;1.45;;;10.30;99.90;;;;;;5094601;28;20137;-77
2022/11/10 08:49:27;;;;;;;1.00;1.00;;;10.40;99.90;;;;;;5094457;28;20032;-77
2022/11/10 08:51:53;;;;;;;2.80;1.20;;;10.40;99.90;;;;;;5094476;28;20042;-77
2022/11/10 08:54:18;;;;;;;4.68;1.50;;;10.50;99.90;;;;;;5094592;28;20070;-77
2022/11/10 08:56:44;;;;;;;1.95;1.20;;;10.50;99.90;;;;;;5092632;28;20073;-77
2022/11/10 08:59:10;;;;;;;1.60;1.25;;;10.50;99.90;;;;;;5093378;28;20032;-77
2022/11/10 09:01:35;;;;;;;1.52;1.05;;;10.60;99.90;;;;;;5094197;28;20038;-77
2022/11/10 09:04:01;;;;;;;2.42;1.13;;;10.80;99.90;;;;;;5092694;28;20489;-77
2022/11/10 09:06:27;;;;;;;1.65;1.05;;;10.90;99.90;;;;;;5094293;28;20063;-77
2022/11/10 09:08:52;;;;;;;1.00;0.85;;;11.00;99.90;;;;;;5093975;28;20027;-77
2022/11/10 09:11:18;;;;;;;1.92;1.17;;;10.90;99.90;;;;;;5093649;28;20414;-77
2022/11/10 09:13:44;;;;;;;2.28;1.15;;;11.00;99.90;;;;;;5091998;28;20111;-77
2022/11/10 09:16:09;;;;;;;1.73;1.10;;;11.10;99.90;;;;;;5093779;28;20538;-77
2022/11/10 09:18:35;;;;;;;1.23;0.77;;;11.10;99.90;;;;;;5092413;28;20046;-77
2022/11/10 09:21:02;;;;;;;2.35;1.00;;;11.20;99.90;;;;;;5094013;28;20538;-77
2022/11/10 09:23:28;;;;;;;1.00;0.88;;;11.20;99.90;;;;;;5092180;28;20048;-77
2022/11/10 09:25:55;;;;;;;1.55;1.00;;;11.30;99.90;;;;;;5092455;28;20481;-77
2022/11/10 09:28:21;;;;;;;1.77;1.10;;;11.30;99.90;;;;;;5093112;28;20054;-77
2022/11/10 09:30:51;;;;;;;2.78;1.00;;;11.30;99.90;;;;;;5093596;28;20378;-77
2022/11/10 09:33:17;;;;;;;1.63;1.20;;;11.40;99.90;;;;;;5093599;28;20081;-77
2022/11/10 09:35:42;;;;;;;1.00;0.90;;;11.30;99.90;;;;;;5093545;28;20020;-77
2022/11/10 09:38:08;;;;;;;1.00;0.82;;;11.30;99.90;;;;;;5093704;28;20020;-78
2022/11/10 09:41:02;;;;;;;0.98;0.80;;;11.40;99.90;;;;;;5093510;28;20028;-77
2022/11/10 09:43:40;;;;;;;0.85;0.85;;;11.50;99.90;;;;;;5080820;28;20040;-77
2022/11/10 09:46:28;;;;;;;1.95;1.52;;;11.50;99.90;;;;;;5093025;28;20031;-78
2022/11/10 09:48:59;;;;;;;2.35;1.02;;;11.40;99.90;;;;;;5091922;28;20550;-77
2022/11/10 09:51:28;;;;;;;;;;;11.40;99.90;;;;;;5093690;28;20073;-77
2022/11/10 09:54:01;;;;;;;3.17;1.40;;;11.40;99.90;;;;;;5092011;28;19904;-78
2022/11/10 09:56:32;;;;;;;2.00;1.45;;;11.40;99.90;;;;;;5093127;28;20016;-78
2022/11/10 09:58:59;;;;;;;1.50;1.05;;;11.40;99.90;;;;;;5091480;28;20114;-77
2022/11/10 10:01:48;;;;;;;1.90;1.10;;;11.20;99.90;;;;;;5093088;28;20036;-78
2022/11/10 10:04:45;;;;;;;2.20;1.50;;;11.40;99.90;;;;;;5093039;28;20031;-78
2022/11/10 10:07:19;;;;;;;1.27;1.13;;;11.40;99.90;;;;;;5092974;28;20059;-78
2022/11/10 10:09:51;;;;;;;1.98;1.10;;;11.50;99.90;;;;;;5091770;28;20059;-78
2022/11/10 10:12:36;;;;;;;2.15;1.40;;;11.50;99.90;;;;;;5092449;28;20024;-78
2022/11/10 10:15:18;;;;;;;1.63;1.02;;;11.60;99.90;;;;;;5091145;28;20405;-78
2022/11/10 10:17:58;;;;;;;1.00;0.90;;;11.60;99.90;;;;;;5091373;28;20036;-78
2022/11/10 10:20:57;;;;;;;3.90;1.52;;;11.60;99.90;;;;;;5092955;28;20028;-78
2022/11/10 10:23:34;;;;;;;1.75;1.40;;;11.60;99.90;;;;;;5091223;28;20034;-78
2022/11/10 10:26:00;;;;;;;2.25;1.50;;;11.50;99.90;;;;;;5092394;28;20088;-78
2022/11/10 10:28:43;;;;;;;2.83;1.38;;;11.50;99.90;;;;;;5092111;28;20028;-78
2022/11/10 10:31:25;;;;;;;1.30;0.98;;;11.60;99.90;;;;;;5092703;28;20024;-78
2022/11/10 10:33:52;;;;;;;1.92;1.40;;;11.60;99.90;;;;;;5092611;28;20573;-78
2022/11/10 10:36:23;;;;;;;1.33;1.20;;;11.60;99.90;;;;;;5092617;28;20054;-78
2022/11/10 10:38:53;;;;;;;2.10;1.75;;;11.70;99.90;;;;;;5092624;28;20035;-78
2022/11/10 10:41:21;;;;;;;2.72;1.80;;;11.70;99.90;;;;;;5094655;28;20020;-78
2022/11/10 10:43:50;;;;;;;2.58;2.03;;;11.70;99.90;;;;;;5097514;28;20039;-78
2022/11/10 10:46:17;;;;;;;3.47;2.35;;;11.70;99.90;;;;;;5092597;28;20024;-78
2022/11/10 10:48:43;;;;;;;5.00;2.75;;;11.80;99.90;;;;;;5092575;28;20477;-78
2022/11/10 10:51:09;;;;;;;2.78;2.20;;;11.70;99.90;;;;;;5090857;28;20035;-78
2022/11/10 10:53:46;;;;;;;4.30;2.60;;;11.80;99.90;;;;;;5090555;28;20028;-78
2022/11/10 10:56:21;;;;;;;5.85;2.78;;;11.90;99.90;;;;;;5092211;28;20020;-78
2022/11/10 10:58:53;;;;;;;4.15;2.80;;;12.00;99.90;;;;;;5091862;28;20020;-78
2022/11/10 11:01:30;;;;;;;3.63;2.65;;;12.00;99.90;;;;;;5092103;28;20066;-78
2022/11/10 11:03:56;;;;;;;3.72;2.60;;;12.30;99.90;;;;;;5092220;28;20028;-78
2022/11/10 11:06:33;;;;;;;2.95;2.60;;;12.50;99.90;;;;;;5090801;28;20077;-78
2022/11/10 11:09:39;;;;;;;3.40;2.63;;;12.70;99.90;;;;;;5092022;28;20119;-78
2022/11/10 11:12:09;;;;;;;5.45;3.42;;;12.50;99.90;;;;;;5029231;28;20061;-77
2022/11/10 11:14:35;;;;;;;4.30;3.03;;;12.60;99.90;;;;;;5029275;28;20025;-77
2022/11/10 11:17:16;;;;;;;5.43;3.55;;;12.80;99.90;;;;;;5029370;28;20270;-77
2022/11/10 11:19:42;;;;;;;6.20;3.72;;;12.80;99.90;;;;;;5029644;28;20061;-77
2022/11/10 11:22:25;;;;;;;4.85;3.50;;;13.00;99.90;;;;;;5015158;28;20584;-77
2022/11/10 11:25:09;;;;;;;5.07;3.78;;;13.00;99.90;;;;;;5033282;28;20098;-77
2022/11/10 11:27:48;;;;;;;4.82;3.55;;;13.00;99.90;;;;;;5016733;28;20490;-77
2022/11/10 11:30:19;;;;;;;4.20;3.17;;;13.00;99.90;;;;;;5016425;28;20061;-77
2022/11/10 11:32:57;;;;;;;6.47;4.75;;;12.90;99.90;;;;;;5033206;28;20025;-77
2022/11/10 11:35:55;;;;;;;6.05;4.90;;;12.80;99.90;;;;;;5033425;28;20068;-77
2022/11/10 11:38:24;;;;;;;7.50;5.35;;;12.90;99.90;;;;;;5032945;28;20026;-77
2022/11/10 11:40:49;;;;;;;6.63;4.97;;;13.00;99.90;;;;;;5033407;28;20037;-77
2022/11/10 11:43:38;;;;;;;7.45;4.68;;;13.10;99.90;;;;;;5074332;28;20043;-77
2022/11/10 11:46:25;;;;;;;5.25;4.35;;;13.20;99.90;;;;;;5095888;28;20024;-78
2022/11/10 11:49:05;;;;;;;5.32;3.80;;;13.30;99.90;;;;;;5095643;28;20080;-78
2022/11/10 11:51:53;;;;;;;4.68;4.05;;;13.30;99.90;;;;;;5073645;28;20028;-78
2022/11/10 11:54:34;;;;;;;5.18;3.88;;;13.30;99.90;;;;;;5075382;28;20021;-77
2022/11/10 11:57:18;;;;;;;5.90;4.07;;;13.30;99.90;;;;;;5073945;28;20143;-77
2022/11/10 12:00:09;;;;;;;7.32;4.38;;;13.10;99.90;;;;;;5075166;28;20028;-77
2022/11/10 12:02:56;;;;;;;5.85;3.70;;;13.20;99.90;;;;;;5074959;28;20024;-78
2022/11/10 12:05:52;;;;;;;7.03;4.68;;;13.20;99.90;;;;;;5075227;28;20028;-78
2022/11/10 12:08:26;;;;;;;4.32;3.55;;;13.10;99.90;;;;;;5073607;28;20039;-78
2022/11/10 12:11:18;;;;;;;5.43;3.97;;;13.20;99.90;;;;;;5075076;28;20024;-77
2022/11/10 12:13:52;;;;;;;;;;;13.20;99.90;;;;;;4979581;28;21173;-77
2022/11/10 12:16:33;;;;;;;5.57;3.75;;;13.30;99.90;;;;;;5012653;28;19958;-78
2022/11/10 12:19:01;;;;;;;;;;;13.30;99.90;;;;;;4996633;28;20034;-78
2022/11/10 12:21:50;;;;;;;6.18;3.67;;;13.30;99.90;;;;;;5012577;28;19909;-77
2022/11/10 12:25:06;;;;;;;7.80;4.22;;;13.30;99.90;;;;;;5012201;28;20164;-77
2022/11/10 12:27:39;;;;;;;5.90;4.25;;;13.40;99.90;;;;;;4934823;29;20042;-77
2022/11/10 12:30:11;;;;;;;6.55;4.68;;;13.40;99.90;;;;;;4918882;29;20166;-77
2022/11/10 12:32:46;;;;;;;8.02;5.72;;;13.40;99.90;;;;;;4933866;29;20031;-77
2022/11/10 12:35:27;;;;;;;7.22;4.53;;;13.90;99.90;;;;;;4934769;29;20055;-78
2022/11/10 12:38:04;;;;;;;6.25;4.50;;;13.90;99.90;;;;;;4934874;29;20490;-78
2022/11/10 12:40:37;;;;;;;6.93;4.88;;;13.70;99.90;;;;;;4934914;29;20064;-78
2022/11/10 12:43:29;;;;;;;6.82;5.00;;;13.50;99.90;;;;;;4945665;29;20046;-77
2022/11/10 12:45:58;;;;;;;6.63;4.45;;;13.60;99.90;;;;;;4918781;29;20039;-77
2022/11/10 12:48:30;;;;;;;6.75;4.68;;;13.70;99.90;;;;;;4918698;29;20031;-77
2022/11/10 12:51:09;;;;;;;6.00;4.38;;;13.70;99.90;;;;;;4999068;28;20124;-78
2022/11/10 12:53:40;;;;;;;4.65;3.70;;;13.70;99.90;;;;;;5028216;28;20087;-77
2022/11/10 12:56:17;;;;;;;5.55;3.78;;;13.80;99.90;;;;;;5031856;28;20033;-78
2022/11/10 12:58:43;;;;;;;4.22;3.10;;;13.70;99.90;;;;;;5031447;28;20108;-77
2022/11/10 13:01:17;;;;;;;4.05;3.33;;;13.70;99.90;;;;;;5015032;28;20117;-77
2022/11/10 13:03:58;;;;;;;4.72;3.20;;;13.70;99.90;;;;;;5064808;28;20087;-78
2022/11/10 13:06:31;;;;;;;4.65;3.20;;;13.70;99.90;;;;;;5073952;28;20102;-77
2022/11/10 13:08:58;;;;;;;4.60;3.80;;;13.80;99.90;;;;;;5072625;28;20035;-77
2022/11/10 13:11:31;;;;;;;3.88;3.17;;;13.80;99.90;;;;;;5073772;28;20071;-77
2022/11/10 13:14:01;;;;;;;5.18;3.17;;;13.80;99.90;;;;;;5078088;28;20048;-77
2022/11/10 13:16:39;;;;;;;7.05;3.13;;;13.90;99.90;;;;;;5092785;28;20046;-77